Time;durP1;ratioP1;P1;durP2;ratioP2;P2;SDS_P1;SDS_P2;PMS_P1;PMS_P2;Temp;Humidity;BMP_temperature;BMP_pressure;BME280_temperature;BME280_humidity;BME280_pressure;Samples;Min_cycle;Max_cycle;Signal;HPM_P1;HPM_P2
2022/09/26 00:00:41;;;;;;;6.83;2.60;;;15.50;64.70;;;;;;5059217;28;20222;-95
2022/09/26 00:03:12;;;;;;;6.70;2.80;;;15.40;64.70;;;;;;5062605;28;20264;-95
2022/09/26 00:06:23;;;;;;;6.17;2.77;;;15.40;64.70;;;;;;5063169;28;20202;-95
2022/09/26 00:08:53;;;;;;;12.53;3.63;;;15.40;65.00;;;;;;5058884;28;20203;-96
2022/09/26 00:11:32;;;;;;;8.37;3.00;;;15.50;65.10;;;;;;5059589;28;20228;-95
2022/09/26 00:14:13;;;;;;;8.20;2.70;;;15.50;65.20;;;;;;5059977;28;20224;-93
2022/09/26 00:16:46;;;;;;;5.47;2.53;;;15.50;65.10;;;;;;5061838;28;20641;-95
2022/09/26 00:19:19;;;;;;;7.77;2.63;;;15.50;65.00;;;;;;5070988;28;20229;-95
2022/09/26 00:21:46;;;;;;;6.50;3.00;;;15.50;65.70;;;;;;5110121;22;20234;-95
2022/09/26 00:24:18;;;;;;;6.83;3.20;;;15.50;64.80;;;;;;5068165;28;20269;-95
2022/09/26 00:26:48;;;;;;;9.70;3.20;;;15.50;64.80;;;;;;5062178;28;20224;-96
2022/09/26 00:32:46;;;;;;;10.60;3.50;;;15.50;65.00;;;;;;5080106;28;20194;-95
2022/09/26 00:35:30;;;;;;;5.57;2.43;;;15.50;64.70;;;;;;5077997;28;20247;-95
2022/09/26 00:38:01;;;;;;;8.10;2.87;;;15.50;64.90;;;;;;5057427;28;20217;-94
2022/09/26 00:44:23;;;;;;;9.77;3.50;;;15.50;64.90;;;;;;5058109;28;20204;-95
2022/09/26 00:46:59;;;;;;;8.30;2.97;;;15.50;64.80;;;;;;5062507;28;20222;-95
2022/09/26 00:49:30;;;;;;;4.27;2.20;;;15.50;64.80;;;;;;5051043;28;20207;-95
2022/09/26 00:52:09;;;;;;;8.33;3.03;;;15.50;64.70;;;;;;5043390;28;20202;-94
2022/09/26 00:54:40;;;;;;;5.77;2.63;;;15.50;64.80;;;;;;5039383;28;20202;-96
2022/09/26 00:57:26;;;;;;;9.57;3.47;;;15.50;64.80;;;;;;5054842;28;20238;-95
2022/09/26 01:00:57;;;;;;;10.50;3.70;;;15.50;64.90;;;;;;5054860;28;20342;-95
2022/09/26 01:03:31;;;;;;;14.70;5.27;;;15.50;64.80;;;;;;5018310;28;20209;-95
2022/09/26 01:06:00;;;;;;;11.10;4.23;;;15.50;64.70;;;;;;5017520;28;20204;-95
2022/09/26 01:08:35;;;;;;;14.60;4.40;;;15.50;64.70;;;;;;5034481;28;20232;-95
2022/09/26 01:14:38;;;;;;;9.73;3.20;;;15.50;64.80;;;;;;5033721;28;20224;-95
2022/09/26 01:17:06;;;;;;;14.17;5.20;;;15.50;64.60;;;;;;5055859;28;20264;-94
2022/09/26 01:19:52;;;;;;;9.83;3.77;;;15.50;64.70;;;;;;5053104;28;20226;-96
2022/09/26 01:26:46;;;;;;;11.70;4.60;;;15.50;64.70;;;;;;5111377;22;20242;-95
2022/09/26 01:29:57;;;;;;;11.47;3.97;;;15.50;64.70;;;;;;5094047;28;20226;-96
2022/09/26 01:33:05;;;;;;;11.57;3.60;;;15.50;64.90;;;;;;5078361;28;20204;-95
2022/09/26 01:36:02;;;;;;;12.30;3.73;;;15.40;64.80;;;;;;5092901;28;20202;-95
2022/09/26 01:38:42;;;;;;;10.80;3.87;;;15.50;64.90;;;;;;5090830;28;20209;-96
2022/09/26 01:41:32;;;;;;;10.67;4.47;;;15.50;65.00;;;;;;5089773;28;20213;-95
2022/09/26 01:47:26;;;;;;;10.37;4.17;;;15.50;65.10;;;;;;5055388;28;20222;-95
2022/09/26 01:50:08;;;;;;;6.53;2.93;;;15.50;65.00;;;;;;5100846;28;20209;-95
2022/09/26 01:52:40;;;;;;;9.83;3.00;;;15.50;65.00;;;;;;5105879;28;20195;-94
2022/09/26 01:55:13;;;;;;;11.03;4.07;;;15.50;65.70;;;;;;5096484;28;20560;-95
2022/09/26 01:57:49;;;;;;;5.10;2.47;;;15.50;64.80;;;;;;5094865;28;20214;-96
2022/09/26 02:03:42;;;;;;;11.30;4.37;;;15.50;65.10;;;;;;5069475;28;20208;-94
2022/09/26 02:06:16;;;;;;;12.73;4.57;;;15.50;64.90;;;;;;5072620;28;20218;-95
2022/09/26 02:08:55;;;;;;;10.90;4.03;;;15.50;65.00;;;;;;5074120;28;20224;-96
2022/09/26 02:11:27;;;;;;;17.47;5.67;;;15.40;64.90;;;;;;5078950;28;20205;-95
2022/09/26 02:14:01;;;;;;;13.40;4.40;;;15.50;64.90;;;;;;5078671;28;20229;-92
2022/09/26 02:16:37;;;;;;;6.87;3.10;;;15.40;64.80;;;;;;5079456;28;20664;-95
2022/09/26 02:19:11;;;;;;;8.70;3.67;;;15.40;65.00;;;;;;5083002;28;20203;-96
2022/09/26 02:21:47;;;;;;;7.87;3.00;;;15.40;65.00;;;;;;5081437;28;20203;-96
2022/09/26 02:24:34;;;;;;;9.47;3.73;;;15.40;65.20;;;;;;5072426;28;20290;-96
2022/09/26 02:30:34;;;;;;;7.70;3.27;;;15.40;65.20;;;;;;5084871;22;20234;-95
2022/09/26 02:33:03;;;;;;;10.10;3.50;;;15.40;65.20;;;;;;5082786;28;20227;-94
2022/09/26 02:42:32;;;;;;;5.17;2.97;;;15.40;65.50;;;;;;5048495;28;20208;-95
2022/09/26 02:45:25;;;;;;;6.47;3.10;;;15.40;65.40;;;;;;5081394;28;20648;-95
2022/09/26 02:48:29;;;;;;;9.40;3.43;;;15.40;65.50;;;;;;5083247;28;20701;-95
2022/09/26 02:51:08;;;;;;;6.70;3.13;;;15.40;65.60;;;;;;5060039;28;20266;-95
2022/09/26 02:54:11;;;;;;;4.73;2.77;;;15.40;65.40;;;;;;5067126;28;20212;-95
2022/09/26 02:57:05;;;;;;;3.97;2.53;;;15.40;65.70;;;;;;5071485;28;20236;-95
2022/09/26 03:05:59;;;;;;;13.43;4.60;;;15.40;65.80;;;;;;5076148;28;20219;-94
2022/09/26 03:08:57;;;;;;;8.27;3.43;;;15.30;65.80;;;;;;5084156;28;20645;-93
2022/09/26 03:14:39;;;;;;;9.97;3.40;;;15.30;66.00;;;;;;5077905;28;20204;-94
2022/09/26 03:17:58;;;;;;;10.10;3.83;;;15.40;66.40;;;;;;5071305;28;20226;-96
2022/09/26 03:20:30;;;;;;;11.07;3.60;;;15.40;66.40;;;;;;5057028;28;20306;-94
2022/09/26 03:23:17;;;;;;;14.67;4.67;;;15.40;66.20;;;;;;5061851;28;20204;-96
2022/09/26 03:25:45;;;;;;;9.87;3.33;;;15.30;66.30;;;;;;5075882;28;20210;-93
2022/09/26 03:28:16;;;;;;;9.83;3.40;;;15.40;66.20;;;;;;5077852;28;20298;-95
2022/09/26 03:30:55;;;;;;;7.83;3.23;;;15.40;66.40;;;;;;5087621;28;20261;-95
2022/09/26 03:33:23;;;;;;;20.47;5.80;;;15.30;66.30;;;;;;5088755;28;20184;-93
2022/09/26 03:36:05;;;;;;;6.60;2.90;;;15.30;66.40;;;;;;5084843;28;20204;-93
2022/09/26 03:38:33;;;;;;;4.47;2.37;;;15.30;66.90;;;;;;5064944;28;20211;-94
2022/09/26 03:41:06;;;;;;;2.73;2.00;;;15.30;66.60;;;;;;5081197;28;20208;-93
2022/09/26 03:43:34;;;;;;;6.47;2.93;;;15.30;67.00;;;;;;5077997;28;20208;-92
2022/09/26 03:46:03;;;;;;;6.70;3.23;;;15.40;67.00;;;;;;5063219;28;20215;-94
2022/09/26 03:48:30;;;;;;;9.27;3.33;;;15.30;66.90;;;;;;5064694;28;20320;-92
2022/09/26 03:51:13;;;;;;;10.10;3.30;;;15.30;67.00;;;;;;5061240;28;20634;-92
2022/09/26 03:53:44;;;;;;;12.37;4.23;;;15.30;67.40;;;;;;5062238;28;20634;-94
2022/09/26 03:57:05;;;;;;;9.63;3.73;;;15.30;67.10;;;;;;5085154;28;20199;-94
2022/09/26 03:59:38;;;;;;;5.40;2.70;;;15.30;67.60;;;;;;5064875;28;20586;-90
2022/09/26 04:02:12;;;;;;;4.70;2.13;;;15.30;67.40;;;;;;5060672;28;20189;-93
2022/09/26 04:05:10;;;;;;;5.37;2.50;;;15.30;67.40;;;;;;5060012;28;20330;-94
2022/09/26 04:07:40;;;;;;;5.37;2.10;;;15.30;67.60;;;;;;5063548;28;20245;-94
2022/09/26 04:10:23;;;;;;;7.33;2.70;;;15.30;67.50;;;;;;5061304;28;20256;-94
2022/09/26 04:12:50;;;;;;;5.13;2.27;;;15.30;67.70;;;;;;5061328;28;20299;-90
2022/09/26 04:15:19;;;;;;;5.13;2.63;;;15.30;67.40;;;;;;5061193;28;20234;-93
2022/09/26 04:21:13;;;;;;;12.77;4.20;;;15.30;67.80;;;;;;5059976;28;20202;-94
2022/09/26 04:24:35;;;;;;;8.63;2.30;;;15.30;67.70;;;;;;5070257;28;20267;-94
2022/09/26 04:27:09;;;;;;;7.67;2.57;;;15.30;67.80;;;;;;5057324;28;20675;-92
2022/09/26 04:32:18;;;;;;;4.53;1.70;;;15.30;67.40;;;;;;5067701;28;20667;-94
2022/09/26 04:34:46;;;;;;;7.40;2.33;;;15.30;67.60;;;;;;5072040;28;20370;-92
2022/09/26 04:37:15;;;;;;;5.30;2.13;;;15.30;67.70;;;;;;5060923;28;20199;-92
2022/09/26 04:39:55;;;;;;;7.83;3.17;;;15.30;67.80;;;;;;5068237;28;20221;-94
2022/09/26 04:42:24;;;;;;;6.30;2.30;;;15.30;67.80;;;;;;5073466;28;20595;-92
2022/09/26 04:44:51;;;;;;;9.10;3.27;;;15.30;68.70;;;;;;5070928;28;20226;-90
2022/09/26 04:47:28;;;;;;;10.73;3.47;;;15.30;67.80;;;;;;5087307;28;20259;-93
2022/09/26 04:49:55;;;;;;;11.33;3.80;;;15.30;67.80;;;;;;5083310;28;20213;-94
2022/09/26 04:52:22;;;;;;;7.07;2.83;;;15.30;67.90;;;;;;5066401;28;20227;-94
2022/09/26 04:54:55;;;;;;;8.63;3.40;;;15.30;67.90;;;;;;5062517;28;20218;-90
2022/09/26 04:57:27;;;;;;;7.87;1.80;;;15.40;68.30;;;;;;5068633;28;20201;-93
2022/09/26 04:59:54;;;;;;;10.80;3.67;;;15.40;68.10;;;;;;5072291;28;20294;-92
2022/09/26 05:02:25;;;;;;;4.23;1.77;;;15.40;68.00;;;;;;5072854;28;20207;-94
2022/09/26 05:05:00;;;;;;;9.87;3.50;;;15.40;68.20;;;;;;5066462;28;20200;-93
2022/09/26 05:07:57;;;;;;;8.10;2.73;;;15.40;68.30;;;;;;5073341;28;20204;-95
2022/09/26 05:10:25;;;;;;;5.67;2.57;;;15.40;68.30;;;;;;5065842;28;20630;-93
2022/09/26 05:13:03;;;;;;;7.77;2.33;;;15.40;68.10;;;;;;5056958;28;20207;-93
2022/09/26 05:18:19;;;;;;;6.20;2.40;;;15.40;68.30;;;;;;5032013;28;20199;-95
2022/09/26 05:26:51;;;;;;;7.73;2.67;;;15.40;68.30;;;;;;5056782;28;20507;-94
2022/09/26 05:29:21;;;;;;;6.40;2.00;;;15.40;68.80;;;;;;5059843;28;20249;-95
2022/09/26 05:34:32;;;;;;;13.03;4.00;;;15.40;68.50;;;;;;5045514;28;20310;-94
2022/09/26 05:37:04;;;;;;;6.73;2.60;;;15.30;68.90;;;;;;5063113;28;20923;-93
2022/09/26 05:42:22;;;;;;;8.97;3.03;;;15.40;69.20;;;;;;5059944;28;20218;-96
2022/09/26 05:44:54;;;;;;;4.27;1.90;;;15.40;69.20;;;;;;5057878;28;20204;-94
2022/09/26 05:47:31;;;;;;;6.40;2.13;;;15.40;69.40;;;;;;5069409;28;20206;-94
2022/09/26 05:49:58;;;;;;;4.87;2.00;;;15.40;69.70;;;;;;5083031;28;20221;-93
2022/09/26 05:52:32;;;;;;;9.37;2.50;;;15.40;69.50;;;;;;5071034;28;20261;-91
2022/09/26 05:54:59;;;;;;;8.57;2.53;;;15.40;69.60;;;;;;5067897;28;20679;-95
2022/09/26 05:57:27;;;;;;;7.67;2.20;;;15.40;69.50;;;;;;5064131;28;20208;-93
2022/09/26 06:00:15;;;;;;;12.30;4.03;;;15.40;69.80;;;;;;5059627;28;20256;-96
2022/09/26 06:02:42;;;;;;;13.07;4.07;;;15.40;70.20;;;;;;5063279;28;20215;-94
2022/09/26 06:05:09;;;;;;;7.20;2.53;;;15.50;69.90;;;;;;5057545;28;20214;-92
2022/09/26 06:08:01;;;;;;;15.67;4.20;;;15.40;69.80;;;;;;5062327;28;20237;-95
2022/09/26 06:10:28;;;;;;;10.03;3.53;;;15.40;70.20;;;;;;5080481;22;20230;-93
2022/09/26 06:12:56;;;;;;;8.40;2.90;;;15.40;70.00;;;;;;5070686;28;20299;-93
2022/09/26 06:15:56;;;;;;;10.80;3.53;;;15.50;70.20;;;;;;5071110;28;20239;-92
2022/09/26 06:18:29;;;;;;;6.63;2.57;;;15.50;70.70;;;;;;5071740;28;20195;-95
2022/09/26 06:21:19;;;;;;;10.77;3.90;;;15.50;70.50;;;;;;5074999;28;20245;-94
2022/09/26 06:23:56;;;;;;;20.10;5.97;;;15.50;70.80;;;;;;5065087;28;20210;-92
2022/09/26 06:27:03;;;;;;;11.07;2.90;;;15.50;70.30;;;;;;5067816;28;20645;-94
2022/09/26 06:29:33;;;;;;;8.53;2.93;;;15.50;70.80;;;;;;5064929;28;20262;-95
2022/09/26 06:32:51;;;;;;;13.10;3.40;;;15.50;70.50;;;;;;5067784;28;20227;-93
2022/09/26 06:35:22;;;;;;;7.50;2.90;;;15.50;71.10;;;;;;5065005;28;20208;-91
2022/09/26 06:37:50;;;;;;;14.33;4.47;;;15.50;71.00;;;;;;5069039;28;20226;-92
2022/09/26 06:40:18;;;;;;;7.63;3.03;;;15.50;71.20;;;;;;5068268;28;20207;-94
2022/09/26 06:42:45;;;;;;;10.20;3.60;;;15.50;71.60;;;;;;5065262;28;20306;-92
2022/09/26 06:45:13;;;;;;;9.60;3.50;;;15.50;72.10;;;;;;5067855;28;20210;-95
2022/09/26 06:47:46;;;;;;;13.73;4.57;;;15.50;72.10;;;;;;5069932;28;20219;-92
2022/09/26 06:50:21;;;;;;;11.70;3.80;;;15.50;72.70;;;;;;5068754;28;20218;-92
2022/09/26 06:52:50;;;;;;;10.07;3.10;;;15.50;73.20;;;;;;5069048;28;20605;-92
2022/09/26 06:55:41;;;;;;;16.97;4.70;;;15.50;72.90;;;;;;5067066;28;20657;-90
2022/09/26 06:58:09;;;;;;;7.97;3.33;;;15.50;73.70;;;;;;5059636;28;21132;-92
2022/09/26 07:00:36;;;;;;;13.93;4.07;;;15.50;73.40;;;;;;5048500;28;20208;-91
2022/09/26 07:03:04;;;;;;;7.27;2.67;;;15.50;73.90;;;;;;5050213;28;20291;-88
2022/09/26 07:05:35;;;;;;;18.07;4.93;;;15.50;74.40;;;;;;5047162;28;20264;-96
2022/09/26 07:08:07;;;;;;;11.53;3.07;;;15.50;74.90;;;;;;5049577;28;20208;-93
2022/09/26 07:10:34;;;;;;;12.30;4.57;;;15.50;75.60;;;;;;5045312;28;20271;-88
2022/09/26 07:13:06;;;;;;;15.33;4.37;;;15.50;75.40;;;;;;5048540;28;20202;-93
2022/09/26 07:15:38;;;;;;;14.87;4.80;;;15.50;76.20;;;;;;5046674;28;20200;-87
2022/09/26 07:18:08;;;;;;;11.53;3.57;;;15.40;76.00;;;;;;5048341;28;20275;-94
2022/09/26 07:20:46;;;;;;;15.70;4.73;;;15.40;76.80;;;;;;5045964;28;20206;-92
2022/09/26 07:23:15;;;;;;;7.90;2.73;;;15.50;77.50;;;;;;5049786;28;20209;-91
2022/09/26 07:25:47;;;;;;;11.20;3.43;;;15.50;77.10;;;;;;5049246;28;20574;-94
2022/09/26 07:28:14;;;;;;;13.70;4.47;;;15.40;77.80;;;;;;5050559;28;20218;-93
2022/09/26 07:30:43;;;;;;;13.13;4.17;;;15.50;77.60;;;;;;5049755;28;20221;-90
2022/09/26 07:33:11;;;;;;;9.27;3.10;;;15.50;78.20;;;;;;5059209;28;20195;-92
2022/09/26 07:35:44;;;;;;;13.47;3.13;;;15.50;78.50;;;;;;5063682;28;20309;-94
2022/09/26 07:41:10;;;;;;;11.63;3.70;;;15.50;78.80;;;;;;5056750;28;20676;-93
2022/09/26 07:43:37;;;;;;;9.37;3.30;;;15.50;79.20;;;;;;5054023;28;20217;-88
2022/09/26 07:51:54;;;;;;;13.63;4.07;;;15.60;79.60;;;;;;4990910;28;20724;-89
2022/09/26 07:54:23;;;;;;;8.70;3.23;;;15.60;80.90;;;;;;5043655;28;20210;-91
2022/09/26 07:56:50;;;;;;;16.07;4.93;;;15.60;80.90;;;;;;5041502;28;20313;-89
2022/09/26 07:59:19;;;;;;;9.47;3.43;;;15.70;80.60;;;;;;5035549;28;20390;-92
2022/09/26 08:01:53;;;;;;;8.63;2.93;;;15.60;81.20;;;;;;5047788;28;20210;-91
2022/09/26 08:04:21;;;;;;;7.90;2.77;;;15.60;82.10;;;;;;5058476;28;20204;-90
2022/09/26 08:06:50;;;;;;;7.90;2.57;;;15.70;81.50;;;;;;5054158;28;20208;-94
2022/09/26 08:09:21;;;;;;;10.60;3.67;;;15.70;81.90;;;;;;5053420;28;20223;-92
2022/09/26 08:11:48;;;;;;;12.90;3.47;;;15.70;82.90;;;;;;5053032;28;20262;-90
2022/09/26 08:14:16;;;;;;;10.17;2.87;;;15.70;82.20;;;;;;5053186;28;20200;-90
2022/09/26 08:16:44;;;;;;;11.10;3.83;;;15.70;82.40;;;;;;5052047;28;20208;-93
2022/09/26 08:19:16;;;;;;;8.20;3.07;;;15.70;82.50;;;;;;5053394;28;20224;-92
2022/09/26 08:21:46;;;;;;;8.80;2.93;;;15.70;83.50;;;;;;5060019;28;20228;-96
2022/09/26 08:24:15;;;;;;;10.27;3.43;;;15.60;83.80;;;;;;5042464;28;20247;-93
2022/09/26 08:27:01;;;;;;;14.23;4.03;;;15.60;83.90;;;;;;5048529;28;20254;-91
2022/09/26 08:29:31;;;;;;;8.73;2.73;;;15.70;85.90;;;;;;5057109;28;20220;-92
2022/09/26 08:32:01;;;;;;;8.90;3.10;;;15.70;84.90;;;;;;5053713;28;20204;-94
2022/09/26 08:34:30;;;;;;;8.67;3.50;;;15.70;84.50;;;;;;5057076;28;20727;-94
2022/09/26 08:36:59;;;;;;;11.83;3.53;;;15.70;84.90;;;;;;5052207;28;20686;-92
2022/09/26 08:39:26;;;;;;;13.20;4.23;;;15.70;85.70;;;;;;5055917;28;20272;-92
2022/09/26 08:42:12;;;;;;;11.90;4.07;;;15.60;84.90;;;;;;5054062;28;20327;-93
2022/09/26 08:44:52;;;;;;;9.70;3.30;;;15.60;86.70;;;;;;5053786;28;20196;-94
2022/09/26 08:47:43;;;;;;;6.30;2.30;;;15.60;87.00;;;;;;5047084;28;20845;-91
2022/09/26 08:50:20;;;;;;;16.23;4.77;;;15.60;86.90;;;;;;5038985;28;20242;-92
2022/09/26 08:52:53;;;;;;;10.07;2.83;;;15.60;86.90;;;;;;5054501;28;20336;-94
2022/09/26 08:55:25;;;;;;;16.67;5.17;;;15.60;87.10;;;;;;5052712;28;20649;-94
2022/09/26 08:58:14;;;;;;;15.03;4.37;;;15.60;87.80;;;;;;5051201;28;20230;-91
2022/09/26 09:00:42;;;;;;;5.43;2.43;;;15.50;88.40;;;;;;5055197;28;20243;-91
2022/09/26 09:03:17;;;;;;;10.43;3.30;;;15.50;87.30;;;;;;5057238;28;20209;-94
2022/09/26 09:06:06;;;;;;;9.57;3.63;;;15.50;88.10;;;;;;5059302;28;20208;-92
2022/09/26 09:08:37;;;;;;;7.17;2.90;;;15.50;88.50;;;;;;5054343;28;20291;-92
2022/09/26 09:11:18;;;;;;;12.30;4.33;;;15.50;88.70;;;;;;5051473;28;20242;-93
2022/09/26 09:14:07;;;;;;;12.47;4.50;;;15.50;89.30;;;;;;5053546;28;20308;-90
2022/09/26 09:16:50;;;;;;;7.37;2.60;;;15.60;89.40;;;;;;5050690;28;20208;-91
2022/09/26 09:19:40;;;;;;;13.63;4.37;;;15.50;89.30;;;;;;5052344;28;20204;-92
2022/09/26 09:22:51;;;;;;;10.63;3.90;;;15.50;89.50;;;;;;5057050;28;20214;-93
2022/09/26 09:25:23;;;;;;;5.70;2.37;;;15.60;89.50;;;;;;5045572;28;20200;-95
2022/09/26 09:28:02;;;;;;;5.00;2.50;;;15.60;89.40;;;;;;5048743;28;20239;-90
2022/09/26 09:30:40;;;;;;;11.23;4.03;;;15.60;90.00;;;;;;5049214;28;20232;-92
2022/09/26 09:33:13;;;;;;;10.43;3.47;;;15.50;90.00;;;;;;5051163;28;20200;-95
2022/09/26 09:35:49;;;;;;;13.40;4.20;;;15.60;90.20;;;;;;5040753;28;20263;-91
2022/09/26 09:38:19;;;;;;;6.50;3.03;;;15.60;90.60;;;;;;5054866;28;20266;-91
2022/09/26 09:40:53;;;;;;;12.47;4.13;;;15.60;90.70;;;;;;5054832;28;20227;-91
2022/09/26 09:43:26;;;;;;;10.30;3.37;;;15.60;91.00;;;;;;5053821;28;20295;-90
2022/09/26 09:45:59;;;;;;;15.77;5.47;;;15.60;90.90;;;;;;5054143;28;20239;-92
2022/09/26 09:48:28;;;;;;;9.00;3.57;;;15.60;91.10;;;;;;5046395;28;20620;-91
2022/09/26 09:51:07;;;;;;;12.67;4.40;;;15.60;90.90;;;;;;5056144;28;20609;-92
2022/09/26 09:53:52;;;;;;;6.63;2.70;;;15.60;91.20;;;;;;5055010;28;20207;-92
2022/09/26 09:56:32;;;;;;;7.53;2.83;;;15.70;91.40;;;;;;5061935;28;20357;-94
2022/09/26 09:59:18;;;;;;;9.33;3.57;;;15.60;91.10;;;;;;5054552;28;20247;-92
2022/09/26 10:01:57;;;;;;;6.03;3.00;;;15.70;91.40;;;;;;5052956;28;20668;-91
2022/09/26 10:04:39;;;;;;;7.77;3.07;;;15.70;91.80;;;;;;5055162;28;20200;-91
2022/09/26 10:07:09;;;;;;;7.33;2.53;;;15.70;91.40;;;;;;5057993;28;20646;-93
2022/09/26 10:09:40;;;;;;;5.00;2.13;;;15.70;91.10;;;;;;5057577;28;20233;-90
2022/09/26 10:12:15;;;;;;;13.57;4.70;;;15.70;91.20;;;;;;5045056;28;20213;-90
2022/09/26 10:15:05;;;;;;;9.57;3.03;;;15.70;91.20;;;;;;5059597;28;20211;-91
2022/09/26 10:17:35;;;;;;;9.73;3.60;;;15.70;91.50;;;;;;5059977;28;20202;-92
2022/09/26 10:20:09;;;;;;;6.87;2.73;;;15.70;91.60;;;;;;5052827;28;20227;-92
2022/09/26 10:22:46;;;;;;;11.73;3.80;;;15.70;91.80;;;;;;5065377;28;20196;-92
2022/09/26 10:25:25;;;;;;;9.17;3.47;;;15.70;91.50;;;;;;5049462;28;20205;-91
2022/09/26 10:28:04;;;;;;;8.67;3.40;;;15.70;91.70;;;;;;5047853;28;20209;-91
2022/09/26 10:30:48;;;;;;;5.13;2.40;;;15.70;91.60;;;;;;5049160;28;20231;-88
2022/09/26 10:33:32;;;;;;;7.93;2.97;;;15.70;92.10;;;;;;5050265;28;20300;-91
2022/09/26 10:36:09;;;;;;;12.73;3.57;;;15.70;92.40;;;;;;5055896;28;20213;-92
2022/09/26 10:41:40;;;;;;;5.60;2.30;;;15.70;92.10;;;;;;5036388;28;20226;-90
2022/09/26 10:44:25;;;;;;;11.13;4.03;;;15.70;91.90;;;;;;5055998;28;20292;-91
2022/09/26 10:46:56;;;;;;;5.00;2.33;;;15.70;92.40;;;;;;5056685;28;20232;-91
2022/09/26 10:49:35;;;;;;;10.73;4.00;;;15.70;92.00;;;;;;5052599;28;20224;-91
2022/09/26 10:52:10;;;;;;;6.60;2.73;;;15.70;92.40;;;;;;5052373;28;20287;-91
2022/09/26 10:54:41;;;;;;;7.67;3.33;;;15.80;92.50;;;;;;5045222;28;20639;-91
2022/09/26 10:57:22;;;;;;;9.80;3.83;;;15.80;92.30;;;;;;5044775;28;20198;-90
2022/09/26 10:59:53;;;;;;;9.20;3.33;;;15.80;92.70;;;;;;5055673;28;20218;-93
2022/09/26 11:02:31;;;;;;;8.93;3.63;;;15.80;92.80;;;;;;5057221;28;20272;-93
2022/09/26 11:07:57;;;;;;;7.03;2.97;;;15.90;92.80;;;;;;5054053;28;20209;-91
2022/09/26 11:10:27;;;;;;;13.27;4.57;;;15.90;92.50;;;;;;5053460;28;20264;-93
2022/09/26 11:13:02;;;;;;;12.50;4.23;;;15.90;92.30;;;;;;5057068;28;20218;-93
2022/09/26 11:15:30;;;;;;;11.50;3.90;;;16.00;92.50;;;;;;5040868;28;20199;-91
2022/09/26 11:17:58;;;;;;;16.57;5.63;;;16.00;92.00;;;;;;5053724;28;20298;-93
2022/09/26 11:20:41;;;;;;;12.63;4.10;;;16.00;91.90;;;;;;5059723;28;20181;-91
2022/09/26 11:23:21;;;;;;;9.97;3.17;;;16.00;92.50;;;;;;5072336;28;20211;-92
2022/09/26 11:25:55;;;;;;;14.40;4.90;;;16.10;92.40;;;;;;5058176;28;20210;-92
2022/09/26 11:31:08;;;;;;;8.83;3.37;;;16.10;92.30;;;;;;3205424;26;20276;-92
2022/09/26 11:33:36;;;;;;;7.13;2.47;;;16.20;92.20;;;;;;4999948;28;20238;-92
2022/09/26 11:36:23;;;;;;;10.90;3.40;;;16.20;91.90;;;;;;4993802;28;20210;-92
2022/09/26 11:39:17;;;;;;;9.70;3.23;;;16.30;92.30;;;;;;4986109;28;20203;-91
2022/09/26 11:42:07;;;;;;;6.40;2.53;;;16.30;92.10;;;;;;4978445;28;20185;-93
2022/09/26 11:44:54;;;;;;;11.73;3.40;;;16.30;92.30;;;;;;4980527;28;20220;-94
2022/09/26 11:47:53;;;;;;;6.70;2.37;;;16.40;92.90;;;;;;4982105;28;20659;-92
2022/09/26 11:50:38;;;;;;;5.10;2.00;;;16.40;93.30;;;;;;4979905;28;20264;-92
2022/09/26 11:53:34;;;;;;;6.03;2.07;;;16.50;93.20;;;;;;4973985;28;20290;-93
2022/09/26 11:56:23;;;;;;;9.33;2.80;;;16.60;93.50;;;;;;4985498;28;20247;-94
2022/09/26 11:59:02;;;;;;;7.43;2.70;;;16.60;93.60;;;;;;4975183;28;20223;-93
2022/09/26 12:02:00;;;;;;;11.63;3.33;;;16.70;92.80;;;;;;4976303;28;20255;-93
2022/09/26 12:04:55;;;;;;;6.13;2.23;;;16.70;94.30;;;;;;4960333;28;20210;-94
2022/09/26 12:07:36;;;;;;;4.87;2.03;;;16.80;95.00;;;;;;4973632;28;20219;-93
2022/09/26 12:10:24;;;;;;;4.80;1.80;;;16.90;94.70;;;;;;4977957;28;20259;-94
2022/09/26 12:16:20;;;;;;;5.87;2.27;;;17.10;94.40;;;;;;4951021;28;20339;-95
2022/09/26 12:22:28;;;;;;;9.87;3.33;;;17.40;93.30;;;;;;5073643;23;20297;-94
2022/09/26 12:25:13;;;;;;;6.93;2.63;;;17.50;92.60;;;;;;5087271;28;20596;-94
2022/09/26 12:27:48;;;;;;;8.73;2.97;;;17.60;92.60;;;;;;5092266;28;20207;-94
2022/09/26 12:30:35;;;;;;;7.43;2.47;;;17.70;92.40;;;;;;5080009;28;20214;-94
2022/09/26 12:33:27;;;;;;;6.73;2.10;;;17.70;92.70;;;;;;5064047;28;20550;-94
2022/09/26 12:36:01;;;;;;;6.77;2.57;;;17.80;92.20;;;;;;5084299;28;20204;-94
2022/09/26 12:38:51;;;;;;;6.93;2.57;;;17.80;91.60;;;;;;5096147;28;20206;-93
2022/09/26 12:41:51;;;;;;;7.63;2.53;;;17.80;91.40;;;;;;5084391;28;20197;-95
2022/09/26 12:48:07;;;;;;;13.53;3.97;;;17.90;91.00;;;;;;5085703;28;20216;-94
2022/09/26 12:53:47;;;;;;;11.67;3.47;;;17.90;90.80;;;;;;5078728;28;20196;-93
2022/09/26 12:59:48;;;;;;;9.20;3.30;;;17.90;91.10;;;;;;5024520;28;20280;-96
2022/09/26 13:02:41;;;;;;;12.83;4.13;;;18.00;91.10;;;;;;5060351;28;20291;-94
2022/09/26 13:05:45;;;;;;;5.90;2.50;;;18.00;91.30;;;;;;5067904;28;20211;-94
2022/09/26 13:08:52;;;;;;;13.73;3.97;;;17.90;91.60;;;;;;5045861;28;20213;-94
2022/09/26 13:11:27;;;;;;;12.23;3.77;;;18.00;91.40;;;;;;5076229;28;20314;-94
2022/09/26 13:14:22;;;;;;;16.70;4.63;;;18.00;91.60;;;;;;5069114;28;20234;-94
2022/09/26 13:17:09;;;;;;;10.67;3.43;;;18.00;92.00;;;;;;5059991;28;20210;-92
2022/09/26 13:19:41;;;;;;;9.53;3.37;;;18.00;91.60;;;;;;5064497;28;20202;-93
2022/09/26 13:22:26;;;;;;;13.03;3.93;;;18.00;91.20;;;;;;5062892;28;20329;-93
2022/09/26 13:25:00;;;;;;;12.70;4.27;;;18.10;91.50;;;;;;5057467;28;20236;-93
2022/09/26 13:27:34;;;;;;;12.70;4.10;;;18.10;91.30;;;;;;5057318;28;20206;-92
2022/09/26 13:30:05;;;;;;;19.27;4.40;;;18.10;90.10;;;;;;5050105;28;20310;-93
2022/09/26 13:32:41;;;;;;;12.57;4.17;;;18.20;88.50;;;;;;5052511;28;20206;-92
2022/09/26 13:35:19;;;;;;;15.47;4.17;;;18.20;85.60;;;;;;5054173;28;21267;-91
2022/09/26 13:38:15;;;;;;;18.90;4.53;;;18.20;84.10;;;;;;5052421;28;20210;-93
2022/09/26 13:41:31;;;;;;;11.17;3.20;;;18.20;84.50;;;;;;5060752;28;20201;-93
2022/09/26 13:44:30;;;;;;;14.77;5.03;;;18.30;85.50;;;;;;5063050;28;20214;-93
2022/09/26 13:47:11;;;;;;;13.47;4.47;;;18.30;86.00;;;;;;5048019;28;20203;-92
2022/09/26 13:49:50;;;;;;;14.20;4.47;;;18.40;86.10;;;;;;5064462;28;20260;-91
2022/09/26 13:52:41;;;;;;;17.13;4.20;;;18.40;83.50;;;;;;5057224;28;20276;-92
2022/09/26 13:55:24;;;;;;;21.03;5.87;;;18.50;80.30;;;;;;5051157;28;20260;-94
2022/09/26 13:58:05;;;;;;;17.37;5.10;;;18.60;77.20;;;;;;5067296;28;21013;-94
2022/09/26 14:01:21;;;;;;;17.90;4.87;;;18.70;78.40;;;;;;5075865;28;20206;-96
2022/09/26 14:03:50;;;;;;;23.43;5.60;;;18.80;74.10;;;;;;5054405;28;20206;-93
2022/09/26 14:06:32;;;;;;;18.33;4.93;;;18.80;76.40;;;;;;5056265;28;20257;-93
2022/09/26 14:09:23;;;;;;;21.50;5.40;;;18.80;75.50;;;;;;5065680;28;20229;-92
2022/09/26 14:12:12;;;;;;;19.33;4.93;;;18.90;77.00;;;;;;5058315;28;20243;-92
2022/09/26 14:15:16;;;;;;;18.20;4.30;;;18.90;75.70;;;;;;5053635;28;20214;-89
2022/09/26 14:18:06;;;;;;;10.83;3.87;;;18.90;73.60;;;;;;5070954;28;20238;-89
2022/09/26 14:20:39;;;;;;;12.57;5.23;;;18.90;73.00;;;;;;5058993;28;20200;-90
2022/09/26 14:23:36;;;;;;;13.67;3.77;;;19.00;74.00;;;;;;5052547;28;20215;-88
2022/09/26 14:26:10;;;;;;;23.47;6.40;;;19.00;72.80;;;;;;5069919;28;20643;-90
2022/09/26 14:28:38;;;;;;;18.17;4.87;;;19.00;72.10;;;;;;5059943;28;20198;-90
2022/09/26 14:31:28;;;;;;;16.87;4.67;;;19.00;71.00;;;;;;5070933;28;20649;-91
2022/09/26 14:34:11;;;;;;;13.30;3.57;;;19.00;70.40;;;;;;5054064;28;20226;-91
2022/09/26 14:36:39;;;;;;;15.23;3.90;;;19.00;69.90;;;;;;5054935;28;20209;-91
2022/09/26 14:39:06;;;;;;;17.20;5.57;;;19.00;69.10;;;;;;5054140;28;20289;-91
2022/09/26 14:44:40;;;;;;;17.93;4.33;;;19.00;69.80;;;;;;5014957;23;20246;-92
2022/09/26 14:47:21;;;;;;;16.53;4.13;;;19.00;68.40;;;;;;4996900;28;20236;-89
2022/09/26 14:50:07;;;;;;;15.80;4.10;;;19.00;67.10;;;;;;4993861;28;20198;-92
2022/09/26 14:52:38;;;;;;;19.47;5.07;;;19.00;68.00;;;;;;4990760;28;20318;-91
2022/09/26 14:55:07;;;;;;;16.00;5.23;;;19.00;69.30;;;;;;4990143;28;20208;-92
2022/09/26 14:57:35;;;;;;;18.97;5.07;;;19.00;69.60;;;;;;4976740;28;20231;-89
2022/09/26 15:00:34;;;;;;;17.47;5.43;;;19.00;69.20;;;;;;4970337;28;20643;-91
2022/09/26 15:03:14;;;;;;;14.57;4.57;;;19.00;68.40;;;;;;4981339;28;20669;-90
2022/09/26 15:05:45;;;;;;;15.47;4.93;;;19.00;68.60;;;;;;4991035;28;20217;-91
2022/09/26 15:08:25;;;;;;;18.03;4.47;;;19.00;69.40;;;;;;4991084;28;20202;-90
2022/09/26 15:10:54;;;;;;;16.37;5.10;;;19.00;67.70;;;;;;4991994;28;20225;-91
2022/09/26 15:13:29;;;;;;;26.10;6.33;;;19.00;68.10;;;;;;4990481;28;20208;-91
2022/09/26 15:16:08;;;;;;;18.50;5.07;;;19.00;68.40;;;;;;4990668;28;20247;-92
2022/09/26 15:18:40;;;;;;;16.10;4.80;;;18.90;69.20;;;;;;4981832;28;20557;-91